sensor_id;sensor_type;location;lat;lon;timestamp;pressure;altitude;pressure_sealevel;temperature;humidity
35918;BME280;22011;59.912;30.300;2023-06-10T00:00:13;102602.09;;;11.98;45.54
35918;BME280;22011;59.912;30.300;2023-06-10T00:02:42;102602.47;;;11.93;45.01
35918;BME280;22011;59.912;30.300;2023-06-10T00:05:10;102608.53;;;11.95;44.98
35918;BME280;22011;59.912;30.300;2023-06-10T00:07:37;102608.66;;;11.94;44.92
35918;BME280;22011;59.912;30.300;2023-06-10T00:10:06;102610.34;;;11.95;44.95
35918;BME280;22011;59.912;30.300;2023-06-10T00:12:33;102609.91;;;11.90;46.02
35918;BME280;22011;59.912;30.300;2023-06-10T00:15:03;102609.19;;;11.88;45.43
35918;BME280;22011;59.912;30.300;2023-06-10T00:17:32;102618.16;;;11.87;45.83
35918;BME280;22011;59.912;30.300;2023-06-10T00:20:00;102614.66;;;11.86;45.74
35918;BME280;22011;59.912;30.300;2023-06-10T00:22:31;102617.31;;;11.86;45.63
35918;BME280;22011;59.912;30.300;2023-06-10T00:24:58;102622.66;;;11.86;47.10
35918;BME280;22011;59.912;30.300;2023-06-10T00:27:25;102617.56;;;11.83;45.79
35918;BME280;22011;59.912;30.300;2023-06-10T00:29:57;102624.59;;;11.84;45.64
35918;BME280;22011;59.912;30.300;2023-06-10T00:32:24;102622.91;;;11.83;46.01
35918;BME280;22011;59.912;30.300;2023-06-10T00:34:53;102629.94;;;11.84;46.15
35918;BME280;22011;59.912;30.300;2023-06-10T00:37:21;102619.78;;;11.78;46.04
35918;BME280;22011;59.912;30.300;2023-06-10T00:39:49;102630.81;;;11.73;46.30
35918;BME280;22011;59.912;30.300;2023-06-10T00:42:16;102639.19;;;11.69;46.03
35918;BME280;22011;59.912;30.300;2023-06-10T00:44:44;102637.50;;;11.68;46.57
35918;BME280;22011;59.912;30.300;2023-06-10T00:47:11;102639.19;;;11.69;46.65
35918;BME280;22011;59.912;30.300;2023-06-10T00:49:39;102640.44;;;11.65;46.84
35918;BME280;22011;59.912;30.300;2023-06-10T00:52:09;102649.16;;;11.67;46.86
35918;BME280;22011;59.912;30.300;2023-06-10T00:54:37;102644.06;;;11.64;46.59
35918;BME280;22011;59.912;30.300;2023-06-10T00:57:05;102648.09;;;11.58;46.97
35918;BME280;22011;59.912;30.300;2023-06-10T00:59:35;102648.34;;;11.55;47.24
35918;BME280;22011;59.912;30.300;2023-06-10T01:02:04;102659.16;;;11.54;47.01
35918;BME280;22011;59.912;30.300;2023-06-10T01:04:31;102652.97;;;11.53;47.80
35918;BME280;22011;59.912;30.300;2023-06-10T01:07:07;102655.59;;;11.64;47.92
35918;BME280;22011;59.912;30.300;2023-06-10T01:09:46;102664.47;;;11.65;47.42
35918;BME280;22011;59.912;30.300;2023-06-10T01:12:19;102664.50;;;11.54;48.13
35918;BME280;22011;59.912;30.300;2023-06-10T01:14:49;102661.47;;;11.47;48.00
35918;BME280;22011;59.912;30.300;2023-06-10T01:17:17;102668.63;;;11.46;47.56
35918;BME280;22011;59.912;30.300;2023-06-10T01:19:53;102673.22;;;11.56;48.94
35918;BME280;22011;59.912;30.300;2023-06-10T01:22:25;102667.22;;;11.42;48.72
35918;BME280;22011;59.912;30.300;2023-06-10T01:24:54;102669.91;;;11.31;48.65
35918;BME280;22011;59.912;30.300;2023-06-10T01:27:28;102672.78;;;11.39;48.92
35918;BME280;22011;59.912;30.300;2023-06-10T01:30:00;102671.94;;;11.39;50.05
35918;BME280;22011;59.912;30.300;2023-06-10T01:32:34;102677.28;;;11.39;48.92
35918;BME280;22011;59.912;30.300;2023-06-10T01:35:05;102673.28;;;11.33;48.79
35918;BME280;22011;59.912;30.300;2023-06-10T01:37:39;102676.34;;;11.29;49.03
35918;BME280;22011;59.912;30.300;2023-06-10T01:40:08;102676.69;;;11.24;49.37
35918;BME280;22011;59.912;30.300;2023-06-10T01:42:36;102681.19;;;11.24;49.16
35918;BME280;22011;59.912;30.300;2023-06-10T01:45:04;102681.31;;;11.22;49.49
35918;BME280;22011;59.912;30.300;2023-06-10T01:47:32;102682.16;;;11.23;49.61
35918;BME280;22011;59.912;30.300;2023-06-10T01:50:00;102684.81;;;11.23;49.67
35918;BME280;22011;59.912;30.300;2023-06-10T01:52:28;102688.34;;;11.23;49.34
35918;BME280;22011;59.912;30.300;2023-06-10T01:54:56;102693.94;;;11.20;50.41
35918;BME280;22011;59.912;30.300;2023-06-10T01:57:24;102693.19;;;11.18;49.35
35918;BME280;22011;59.912;30.300;2023-06-10T01:59:53;102697.69;;;11.18;49.67
35918;BME280;22011;59.912;30.300;2023-06-10T02:02:20;102702.41;;;11.14;50.14
35918;BME280;22011;59.912;30.300;2023-06-10T02:04:48;102704.22;;;11.13;50.46
35918;BME280;22011;59.912;30.300;2023-06-10T02:07:16;102715.75;;;11.14;50.34
35918;BME280;22011;59.912;30.300;2023-06-10T02:09:44;102708.84;;;11.11;50.55
35918;BME280;22011;59.912;30.300;2023-06-10T02:12:13;102714.06;;;11.13;50.76
35918;BME280;22011;59.912;30.300;2023-06-10T02:14:41;102712.34;;;11.12;50.43
35918;BME280;22011;59.912;30.300;2023-06-10T02:17:08;102710.66;;;11.11;50.51
35918;BME280;22011;59.912;30.300;2023-06-10T02:19:38;102719.50;;;11.11;50.64
35918;BME280;22011;59.912;30.300;2023-06-10T02:22:09;102720.97;;;11.04;51.04
35918;BME280;22011;59.912;30.300;2023-06-10T02:24:37;102726.91;;;11.08;51.15
35918;BME280;22011;59.912;30.300;2023-06-10T02:27:05;102723.41;;;11.07;52.02
35918;BME280;22011;59.912;30.300;2023-06-10T02:29:35;102725.69;;;11.12;51.62
35918;BME280;22011;59.912;30.300;2023-06-10T02:32:04;102731.75;;;11.14;51.23
35918;BME280;22011;59.912;30.300;2023-06-10T02:34:32;102733.47;;;11.15;51.11
35918;BME280;22011;59.912;30.300;2023-06-10T02:37:00;102738.78;;;11.15;51.13
35918;BME280;22011;59.912;30.300;2023-06-10T02:39:29;102738.06;;;11.13;51.10
35918;BME280;22011;59.912;30.300;2023-06-10T02:41:57;102740.84;;;11.11;51.54
35918;BME280;22011;59.912;30.300;2023-06-10T02:44:24;102740.75;;;11.13;51.21
35918;BME280;22011;59.912;30.300;2023-06-10T02:46:54;102741.34;;;11.17;51.51
35918;BME280;22011;59.912;30.300;2023-06-10T02:49:21;102740.00;;;11.11;52.16
35918;BME280;22011;59.912;30.300;2023-06-10T02:51:50;102739.28;;;11.09;52.62
35918;BME280;22011;59.912;30.300;2023-06-10T02:54:20;102746.56;;;11.07;52.23
35918;BME280;22011;59.912;30.300;2023-06-10T02:56:48;102753.59;;;11.08;52.43
35918;BME280;22011;59.912;30.300;2023-06-10T02:59:20;102758.81;;;11.09;52.38
35918;BME280;22011;59.912;30.300;2023-06-10T03:01:48;102765.72;;;11.12;52.10
35918;BME280;22011;59.912;30.300;2023-06-10T03:04:17;102769.34;;;11.11;52.06
35918;BME280;22011;59.912;30.300;2023-06-10T03:06:53;102775.03;;;11.06;52.06
35918;BME280;22011;59.912;30.300;2023-06-10T03:09:27;102778.31;;;11.10;52.73
35918;BME280;22011;59.912;30.300;2023-06-10T03:11:57;102780.25;;;11.08;52.90
35918;BME280;22011;59.912;30.300;2023-06-10T03:14:25;102779.28;;;11.09;52.81
35918;BME280;22011;59.912;30.300;2023-06-10T03:16:53;102785.00;;;11.16;53.46
35918;BME280;22011;59.912;30.300;2023-06-10T03:19:25;102790.72;;;11.22;53.29
35918;BME280;22011;59.912;30.300;2023-06-10T03:22:09;102784.53;;;11.33;54.30
35918;BME280;22011;59.912;30.300;2023-06-10T03:24:41;102795.78;;;11.14;53.65
35918;BME280;22011;59.912;30.300;2023-06-10T03:27:10;102794.38;;;11.43;53.18
35918;BME280;22011;59.912;30.300;2023-06-10T03:29:39;102799.44;;;11.24;54.48
35918;BME280;22011;59.912;30.300;2023-06-10T03:32:08;102800.41;;;11.23;53.93
35918;BME280;22011;59.912;30.300;2023-06-10T03:34:40;102801.63;;;11.30;55.10
35918;BME280;22011;59.912;30.300;2023-06-10T03:37:09;102794.09;;;11.24;54.39
35918;BME280;22011;59.912;30.300;2023-06-10T03:39:36;102795.69;;;11.27;54.56
35918;BME280;22011;59.912;30.300;2023-06-10T03:42:05;102788.78;;;11.35;54.70
35918;BME280;22011;59.912;30.300;2023-06-10T03:44:33;102795.06;;;11.45;54.47
35918;BME280;22011;59.912;30.300;2023-06-10T03:47:01;102794.44;;;11.53;54.58
35918;BME280;22011;59.912;30.300;2023-06-10T03:49:30;102798.09;;;11.63;54.62
35918;BME280;22011;59.912;30.300;2023-06-10T03:52:03;102805.25;;;11.74;54.50
35918;BME280;22011;59.912;30.300;2023-06-10T03:54:30;102810.13;;;11.80;54.45
35918;BME280;22011;59.912;30.300;2023-06-10T03:57:00;102810.72;;;11.84;54.48
35918;BME280;22011;59.912;30.300;2023-06-10T03:59:30;102813.03;;;11.88;54.43
35918;BME280;22011;59.912;30.300;2023-06-10T04:01:57;102806.94;;;11.97;53.94
35918;BME280;22011;59.912;30.300;2023-06-10T04:04:26;102806.31;;;12.05;54.30
35918;BME280;22011;59.912;30.300;2023-06-10T04:06:54;102808.00;;;12.17;53.54
35918;BME280;22011;59.912;30.300;2023-06-10T04:09:24;102813.44;;;12.27;53.76
35918;BME280;22011;59.912;30.300;2023-06-10T04:11:51;102813.16;;;12.30;53.53
35918;BME280;22011;59.912;30.300;2023-06-10T04:14:19;102815.59;;;12.33;53.37
35918;BME280;22011;59.912;30.300;2023-06-10T04:16:47;102812.63;;;12.47;53.06
35918;BME280;22011;59.912;30.300;2023-06-10T04:19:17;102813.78;;;12.54;52.21
35918;BME280;22011;59.912;30.300;2023-06-10T04:21:45;102813.00;;;12.63;52.51
35918;BME280;22011;59.912;30.300;2023-06-10T04:24:12;102822.47;;;12.67;52.29
35918;BME280;22011;59.912;30.300;2023-06-10T04:26:42;102825.50;;;12.95;51.26
35918;BME280;22011;59.912;30.300;2023-06-10T04:29:09;102818.19;;;12.97;51.38
35918;BME280;22011;59.912;30.300;2023-06-10T04:31:37;102818.84;;;13.10;50.28
35918;BME280;22011;59.912;30.300;2023-06-10T04:34:04;102826.97;;;13.20;49.92
35918;BME280;22011;59.912;30.300;2023-06-10T04:36:33;102819.88;;;13.39;49.19
35918;BME280;22011;59.912;30.300;2023-06-10T04:39:00;102830.50;;;13.51;49.38
35918;BME280;22011;59.912;30.300;2023-06-10T04:41:30;102823.31;;;13.61;48.43
35918;BME280;22011;59.912;30.300;2023-06-10T04:43:58;102823.22;;;13.72;49.17
35918;BME280;22011;59.912;30.300;2023-06-10T04:46:26;102823.41;;;13.80;47.69
35918;BME280;22011;59.912;30.300;2023-06-10T04:48:56;102824.63;;;14.26;48.50
35918;BME280;22011;59.912;30.300;2023-06-10T04:51:24;102828.09;;;13.97;47.83
35918;BME280;22011;59.912;30.300;2023-06-10T04:53:52;102829.09;;;13.96;47.97
35918;BME280;22011;59.912;30.300;2023-06-10T04:56:20;102831.94;;;14.04;45.87
35918;BME280;22011;59.912;30.300;2023-06-10T04:58:47;102836.44;;;14.04;46.48
35918;BME280;22011;59.912;30.300;2023-06-10T05:01:16;102843.19;;;13.98;46.92
35918;BME280;22011;59.912;30.300;2023-06-10T05:03:44;102840.78;;;13.95;46.12
35918;BME280;22011;59.912;30.300;2023-06-10T05:06:11;102837.03;;;14.07;45.11
35918;BME280;22011;59.912;30.300;2023-06-10T05:08:38;102841.22;;;14.00;45.49
35918;BME280;22011;59.912;30.300;2023-06-10T05:11:06;102844.78;;;14.11;44.60
35918;BME280;22011;59.912;30.300;2023-06-10T05:13:34;102837.59;;;14.11;45.10
35918;BME280;22011;59.912;30.300;2023-06-10T05:16:02;102848.00;;;14.04;44.75
35918;BME280;22011;59.912;30.300;2023-06-10T05:18:31;102848.19;;;14.13;44.82
35918;BME280;22011;59.912;30.300;2023-06-10T05:20:58;102854.34;;;14.03;45.36
35918;BME280;22011;59.912;30.300;2023-06-10T05:23:26;102859.16;;;14.10;45.38
35918;BME280;22011;59.912;30.300;2023-06-10T05:25:54;102857.63;;;14.17;43.72
35918;BME280;22011;59.912;30.300;2023-06-10T05:28:21;102863.00;;;14.17;44.77
35918;BME280;22011;59.912;30.300;2023-06-10T05:30:48;102866.97;;;14.32;43.86
35918;BME280;22011;59.912;30.300;2023-06-10T05:33:16;102870.09;;;14.37;43.97
35918;BME280;22011;59.912;30.300;2023-06-10T05:35:45;102869.56;;;14.43;42.74
35918;BME280;22011;59.912;30.300;2023-06-10T05:38:13;102867.41;;;14.37;43.41
35918;BME280;22011;59.912;30.300;2023-06-10T05:40:40;102868.25;;;14.28;43.25
35918;BME280;22011;59.912;30.300;2023-06-10T05:43:08;102872.31;;;14.13;43.18
35918;BME280;22011;59.912;30.300;2023-06-10T05:45:35;102874.50;;;13.98;42.93
35918;BME280;22011;59.912;30.300;2023-06-10T05:48:03;102877.06;;;13.99;43.08
35918;BME280;22011;59.912;30.300;2023-06-10T05:50:31;102881.47;;;14.10;42.59
35918;BME280;22011;59.912;30.300;2023-06-10T05:53:05;102877.81;;;14.21;42.99
35918;BME280;22011;59.912;30.300;2023-06-10T05:55:34;102880.28;;;14.62;43.31
35918;BME280;22011;59.912;30.300;2023-06-10T05:58:02;102889.44;;;14.40;41.75
35918;BME280;22011;59.912;30.300;2023-06-10T06:00:29;102885.41;;;14.46;41.33
35918;BME280;22011;59.912;30.300;2023-06-10T06:02:57;102890.63;;;14.48;41.28
35918;BME280;22011;59.912;30.300;2023-06-10T06:05:25;102884.97;;;14.51;41.37
35918;BME280;22011;59.912;30.300;2023-06-10T06:07:52;102886.53;;;14.53;41.38
35918;BME280;22011;59.912;30.300;2023-06-10T06:10:21;102883.56;;;14.76;40.66
35918;BME280;22011;59.912;30.300;2023-06-10T06:12:49;102879.75;;;14.88;39.26
35918;BME280;22011;59.912;30.300;2023-06-10T06:15:16;102880.44;;;14.99;39.51
35918;BME280;22011;59.912;30.300;2023-06-10T06:17:43;102884.53;;;15.13;38.63
35918;BME280;22011;59.912;30.300;2023-06-10T06:20:11;102887.09;;;14.95;38.80
35918;BME280;22011;59.912;30.300;2023-06-10T06:22:39;102884.41;;;14.76;38.32
35918;BME280;22011;59.912;30.300;2023-06-10T06:25:07;102890.03;;;14.63;39.05
35918;BME280;22011;59.912;30.300;2023-06-10T06:27:36;102883.97;;;14.61;39.27
35918;BME280;22011;59.912;30.300;2023-06-10T06:30:04;102893.72;;;14.53;39.69
35918;BME280;22011;59.912;30.300;2023-06-10T06:32:32;102888.91;;;14.47;39.51
35918;BME280;22011;59.912;30.300;2023-06-10T06:35:03;102885.22;;;14.57;39.30
35918;BME280;22011;59.912;30.300;2023-06-10T06:37:34;102887.38;;;14.83;38.76
35918;BME280;22011;59.912;30.300;2023-06-10T06:40:14;102882.53;;;15.25;37.43
35918;BME280;22011;59.912;30.300;2023-06-10T06:42:44;102889.53;;;15.55;37.07
35918;BME280;22011;59.912;30.300;2023-06-10T06:45:17;102884.13;;;15.64;36.09
35918;BME280;22011;59.912;30.300;2023-06-10T06:47:45;102883.56;;;15.61;36.11
35918;BME280;22011;59.912;30.300;2023-06-10T06:50:12;102894.91;;;15.55;36.05
35918;BME280;22011;59.912;30.300;2023-06-10T06:52:40;102885.03;;;15.46;35.94
35918;BME280;22011;59.912;30.300;2023-06-10T06:55:08;102892.66;;;15.60;35.86
35918;BME280;22011;59.912;30.300;2023-06-10T06:57:35;102895.41;;;15.68;35.24
35918;BME280;22011;59.912;30.300;2023-06-10T07:00:06;102900.25;;;15.64;36.09
35918;BME280;22011;59.912;30.300;2023-06-10T07:02:35;102902.56;;;15.40;36.10
35918;BME280;22011;59.912;30.300;2023-06-10T07:05:03;102892.66;;;15.41;36.09
35918;BME280;22011;59.912;30.300;2023-06-10T07:07:31;102901.56;;;15.51;35.45
35918;BME280;22011;59.912;30.300;2023-06-10T07:09:58;102912.28;;;15.60;34.94
35918;BME280;22011;59.912;30.300;2023-06-10T07:12:26;102912.66;;;15.75;34.14
35918;BME280;22011;59.912;30.300;2023-06-10T07:14:54;102907.66;;;15.90;33.71
35918;BME280;22011;59.912;30.300;2023-06-10T07:17:22;102908.09;;;16.13;33.30
35918;BME280;22011;59.912;30.300;2023-06-10T07:19:50;102907.47;;;16.28;34.19
35918;BME280;22011;59.912;30.300;2023-06-10T07:22:18;102917.06;;;16.31;33.63
35918;BME280;22011;59.912;30.300;2023-06-10T07:24:45;102910.94;;;16.11;33.48
35918;BME280;22011;59.912;30.300;2023-06-10T07:27:13;102913.59;;;16.21;33.04
35918;BME280;22011;59.912;30.300;2023-06-10T07:29:40;102911.47;;;16.42;33.04
35918;BME280;22011;59.912;30.300;2023-06-10T07:32:08;102916.19;;;16.58;33.03
35918;BME280;22011;59.912;30.300;2023-06-10T07:34:37;102918.44;;;16.62;32.81
35918;BME280;22011;59.912;30.300;2023-06-10T07:37:05;102916.41;;;16.47;33.27
35918;BME280;22011;59.912;30.300;2023-06-10T07:39:33;102914.13;;;16.70;32.72
35918;BME280;22011;59.912;30.300;2023-06-10T07:42:00;102918.13;;;16.83;32.68
35918;BME280;22011;59.912;30.300;2023-06-10T07:44:28;102924.13;;;16.95;31.94
35918;BME280;22011;59.912;30.300;2023-06-10T07:46:56;102915.66;;;16.90;31.91
35918;BME280;22011;59.912;30.300;2023-06-10T07:49:24;102925.25;;;16.57;33.25
35918;BME280;22011;59.912;30.300;2023-06-10T07:51:54;102929.56;;;16.50;33.06
35918;BME280;22011;59.912;30.300;2023-06-10T07:54:21;102925.38;;;16.38;32.38
35918;BME280;22011;59.912;30.300;2023-06-10T07:56:49;102928.44;;;16.25;32.65
35918;BME280;22011;59.912;30.300;2023-06-10T07:59:18;102938.69;;;16.12;33.14
35918;BME280;22011;59.912;30.300;2023-06-10T08:01:45;102937.22;;;15.90;33.63
35918;BME280;22011;59.912;30.300;2023-06-10T08:04:13;102934.81;;;15.87;33.41
35918;BME280;22011;59.912;30.300;2023-06-10T08:06:40;102942.22;;;15.75;34.10
35918;BME280;22011;59.912;30.300;2023-06-10T08:09:09;102947.53;;;15.94;33.66
35918;BME280;22011;59.912;30.300;2023-06-10T08:11:37;102941.72;;;15.99;34.39
35918;BME280;22011;59.912;30.300;2023-06-10T08:14:04;102942.97;;;16.05;33.34
35918;BME280;22011;59.912;30.300;2023-06-10T08:16:32;102939.03;;;16.26;33.52
35918;BME280;22011;59.912;30.300;2023-06-10T08:18:59;102944.16;;;16.47;33.63
35918;BME280;22011;59.912;30.300;2023-06-10T08:21:27;102940.69;;;16.37;34.48
35918;BME280;22011;59.912;30.300;2023-06-10T08:23:55;102948.94;;;16.26;34.69
35918;BME280;22011;59.912;30.300;2023-06-10T08:26:24;102950.88;;;16.06;34.83
35918;BME280;22011;59.912;30.300;2023-06-10T08:28:52;102958.63;;;15.82;35.29
35918;BME280;22011;59.912;30.300;2023-06-10T08:31:20;102948.56;;;15.84;35.45
35918;BME280;22011;59.912;30.300;2023-06-10T08:33:48;102955.44;;;15.96;36.07
35918;BME280;22011;59.912;30.300;2023-06-10T08:36:15;102953.56;;;16.06;35.89
35918;BME280;22011;59.912;30.300;2023-06-10T08:38:43;102955.13;;;16.09;35.51
35918;BME280;22011;59.912;30.300;2023-06-10T08:41:12;102957.22;;;16.15;36.22
35918;BME280;22011;59.912;30.300;2023-06-10T08:43:45;102963.59;;;16.41;35.33
35918;BME280;22011;59.912;30.300;2023-06-10T08:46:15;102964.72;;;16.66;34.50
35918;BME280;22011;59.912;30.300;2023-06-10T08:48:44;102972.38;;;16.88;33.78
35918;BME280;22011;59.912;30.300;2023-06-10T08:51:11;102957.91;;;16.89;33.82
35918;BME280;22011;59.912;30.300;2023-06-10T08:53:48;102973.44;;;16.95;34.70
35918;BME280;22011;59.912;30.300;2023-06-10T08:56:17;102972.22;;;16.45;35.83
35918;BME280;22011;59.912;30.300;2023-06-10T08:58:48;102979.28;;;16.18;35.80
35918;BME280;22011;59.912;30.300;2023-06-10T09:01:15;102974.50;;;16.40;35.78
35918;BME280;22011;59.912;30.300;2023-06-10T09:03:43;102978.53;;;15.89;36.00
35918;BME280;22011;59.912;30.300;2023-06-10T09:06:10;102981.25;;;15.79;36.14
35918;BME280;22011;59.912;30.300;2023-06-10T09:08:38;102991.75;;;15.63;36.70
35918;BME280;22011;59.912;30.300;2023-06-10T09:11:06;102977.78;;;15.50;36.08
35918;BME280;22011;59.912;30.300;2023-06-10T09:13:34;102979.34;;;15.43;36.78
35918;BME280;22011;59.912;30.300;2023-06-10T09:16:03;102981.44;;;15.49;36.34
35918;BME280;22011;59.912;30.300;2023-06-10T09:18:31;102982.16;;;15.51;36.25
35918;BME280;22011;59.912;30.300;2023-06-10T09:21:00;102979.19;;;15.54;36.60
35918;BME280;22011;59.912;30.300;2023-06-10T09:23:28;102995.44;;;15.52;35.68
35918;BME280;22011;59.912;30.300;2023-06-10T09:25:56;102993.59;;;15.53;35.27
35918;BME280;22011;59.912;30.300;2023-06-10T09:28:24;102984.84;;;15.51;35.30
35918;BME280;22011;59.912;30.300;2023-06-10T09:31:04;102994.97;;;15.76;35.94
35918;BME280;22011;59.912;30.300;2023-06-10T09:33:31;102988.72;;;15.95;34.57
35918;BME280;22011;59.912;30.300;2023-06-10T09:36:01;102986.41;;;16.37;33.54
35918;BME280;22011;59.912;30.300;2023-06-10T09:38:29;102979.75;;;17.04;34.50
35918;BME280;22011;59.912;30.300;2023-06-10T09:40:57;102977.59;;;16.90;32.66
35918;BME280;22011;59.912;30.300;2023-06-10T09:43:39;102975.97;;;17.32;32.60
35918;BME280;22011;59.912;30.300;2023-06-10T09:46:14;102972.22;;;17.25;32.55
35918;BME280;22011;59.912;30.300;2023-06-10T09:48:43;102973.13;;;16.98;32.75
35918;BME280;22011;59.912;30.300;2023-06-10T09:51:11;102969.22;;;17.28;31.12
35918;BME280;22011;59.912;30.300;2023-06-10T09:53:39;102966.47;;;17.46;29.91
35918;BME280;22011;59.912;30.300;2023-06-10T09:56:06;102967.00;;;17.68;30.13
35918;BME280;22011;59.912;30.300;2023-06-10T09:58:38;102966.06;;;17.85;30.42
35918;BME280;22011;59.912;30.300;2023-06-10T10:01:11;102970.94;;;17.81;29.65
35918;BME280;22011;59.912;30.300;2023-06-10T10:03:45;102963.75;;;17.90;29.83
35918;BME280;22011;59.912;30.300;2023-06-10T10:06:14;102971.41;;;17.51;30.15
35918;BME280;22011;59.912;30.300;2023-06-10T10:08:42;102970.59;;;17.15;31.06
35918;BME280;22011;59.912;30.300;2023-06-10T10:11:10;102965.44;;;16.86;31.35
35918;BME280;22011;59.912;30.300;2023-06-10T10:13:39;102969.28;;;17.01;30.53
35918;BME280;22011;59.912;30.300;2023-06-10T10:16:11;102973.97;;;17.35;29.96
35918;BME280;22011;59.912;30.300;2023-06-10T10:18:43;102969.66;;;17.42;29.70
35918;BME280;22011;59.912;30.300;2023-06-10T10:21:13;102977.25;;;17.46;29.37
35918;BME280;22011;59.912;30.300;2023-06-10T10:23:44;102973.47;;;17.83;30.30
35918;BME280;22011;59.912;30.300;2023-06-10T10:26:16;102967.03;;;17.50;29.16
35918;BME280;22011;59.912;30.300;2023-06-10T10:28:49;102975.59;;;17.71;29.20
35918;BME280;22011;59.912;30.300;2023-06-10T10:31:21;102973.06;;;17.70;29.43
35918;BME280;22011;59.912;30.300;2023-06-10T10:33:54;102967.88;;;17.76;29.39
35918;BME280;22011;59.912;30.300;2023-06-10T10:36:22;102967.56;;;17.79;28.23
35918;BME280;22011;59.912;30.300;2023-06-10T10:38:50;102967.00;;;18.02;27.69
35918;BME280;22011;59.912;30.300;2023-06-10T10:41:19;102961.97;;;18.07;27.46
35918;BME280;22011;59.912;30.300;2023-06-10T10:43:47;102967.69;;;18.04;27.47
35918;BME280;22011;59.912;30.300;2023-06-10T10:46:16;102965.97;;;17.94;27.72
35918;BME280;22011;59.912;30.300;2023-06-10T10:48:47;102960.78;;;18.01;27.50
35918;BME280;22011;59.912;30.300;2023-06-10T10:51:19;102955.81;;;17.88;27.16
35918;BME280;22011;59.912;30.300;2023-06-10T10:54:10;102961.19;;;18.14;27.58
35918;BME280;22011;59.912;30.300;2023-06-10T10:56:38;102972.16;;;17.61;27.15
35918;BME280;22011;59.912;30.300;2023-06-10T10:59:07;102960.78;;;17.67;27.61
35918;BME280;22011;59.912;30.300;2023-06-10T11:01:40;102969.31;;;17.88;27.34
35918;BME280;22011;59.912;30.300;2023-06-10T11:04:09;102958.72;;;17.95;26.76
35918;BME280;22011;59.912;30.300;2023-06-10T11:06:37;102963.22;;;17.86;27.49
35918;BME280;22011;59.912;30.300;2023-06-10T11:09:25;102957.63;;;18.14;27.33
35918;BME280;22011;59.912;30.300;2023-06-10T11:11:56;102964.06;;;17.87;27.23
35918;BME280;22011;59.912;30.300;2023-06-10T11:14:28;102965.22;;;17.84;27.27
35918;BME280;22011;59.912;30.300;2023-06-10T11:16:57;102957.09;;;17.76;26.54
35918;BME280;22011;59.912;30.300;2023-06-10T11:19:33;102952.72;;;18.09;27.24
35918;BME280;22011;59.912;30.300;2023-06-10T11:22:02;102955.81;;;17.88;27.33
35918;BME280;22011;59.912;30.300;2023-06-10T11:24:30;102963.09;;;17.96;26.84
35918;BME280;22011;59.912;30.300;2023-06-10T11:27:16;102964.72;;;18.15;27.35
35918;BME280;22011;59.912;30.300;2023-06-10T11:30:19;102953.28;;;18.21;27.65
35918;BME280;22011;59.912;30.300;2023-06-10T11:32:51;102954.38;;;18.02;26.36
35918;BME280;22011;59.912;30.300;2023-06-10T11:35:23;102957.06;;;18.02;26.65
35918;BME280;22011;59.912;30.300;2023-06-10T11:37:51;102952.13;;;17.89;26.87
35918;BME280;22011;59.912;30.300;2023-06-10T11:40:18;102952.75;;;17.83;26.21
35918;BME280;22011;59.912;30.300;2023-06-10T11:42:46;102956.94;;;17.78;26.38
35918;BME280;22011;59.912;30.300;2023-06-10T11:45:15;102954.97;;;17.88;26.77
35918;BME280;22011;59.912;30.300;2023-06-10T11:47:55;102958.63;;;18.13;26.76
35918;BME280;22011;59.912;30.300;2023-06-10T11:50:31;102963.31;;;18.03;26.81
35918;BME280;22011;59.912;30.300;2023-06-10T11:52:59;102962.13;;;17.71;26.48
35918;BME280;22011;59.912;30.300;2023-06-10T11:55:40;102966.50;;;17.98;26.66
35918;BME280;22011;59.912;30.300;2023-06-10T11:58:12;102976.38;;;17.89;26.27
35918;BME280;22011;59.912;30.300;2023-06-10T12:00:44;102959.19;;;17.90;26.14
35918;BME280;22011;59.912;30.300;2023-06-10T12:03:13;102958.47;;;17.80;25.96
35918;BME280;22011;59.912;30.300;2023-06-10T12:05:56;102959.94;;;18.01;26.72
35918;BME280;22011;59.912;30.300;2023-06-10T12:08:24;102951.06;;;17.82;26.32
35918;BME280;22011;59.912;30.300;2023-06-10T12:10:52;102955.75;;;17.80;26.67
35918;BME280;22011;59.912;30.300;2023-06-10T12:13:20;102951.59;;;17.86;26.63
35918;BME280;22011;59.912;30.300;2023-06-10T12:15:49;102951.75;;;17.84;26.64
35918;BME280;22011;59.912;30.300;2023-06-10T12:18:17;102943.44;;;17.78;26.82
35918;BME280;22011;59.912;30.300;2023-06-10T12:20:46;102957.47;;;17.81;27.85
35918;BME280;22011;59.912;30.300;2023-06-10T12:23:15;102959.84;;;17.84;27.09
35918;BME280;22011;59.912;30.300;2023-06-10T12:25:50;102962.47;;;18.02;27.51
35918;BME280;22011;59.912;30.300;2023-06-10T12:28:21;102959.50;;;17.87;26.82
35918;BME280;22011;59.912;30.300;2023-06-10T12:30:48;102962.47;;;17.76;27.59
35918;BME280;22011;59.912;30.300;2023-06-10T12:33:16;102962.63;;;17.67;27.68
35918;BME280;22011;59.912;30.300;2023-06-10T12:35:48;102963.47;;;17.67;27.91
35918;BME280;22011;59.912;30.300;2023-06-10T12:38:21;102955.28;;;17.59;28.24
35918;BME280;22011;59.912;30.300;2023-06-10T12:40:50;102953.91;;;17.55;27.65
35918;BME280;22011;59.912;30.300;2023-06-10T12:43:22;102954.97;;;17.62;28.53
35918;BME280;22011;59.912;30.300;2023-06-10T12:45:50;102950.16;;;17.48;27.83
35918;BME280;22011;59.912;30.300;2023-06-10T12:48:18;102950.47;;;17.45;28.11
35918;BME280;22011;59.912;30.300;2023-06-10T12:50:51;102948.91;;;17.60;28.68